createdAt,value
2018-06-12T00:01:51.771Z,7.73
2018-06-12T00:04:23.004Z,5.27
2018-06-12T00:06:54.233Z,6.77
2018-06-12T00:09:25.599Z,5.27
2018-06-12T00:11:56.949Z,7.37
2018-06-12T00:14:28.770Z,7.73
2018-06-12T00:17:00.118Z,6.30
2018-06-12T00:19:31.527Z,4.53
2018-06-12T00:22:02.673Z,6.47
2018-06-12T00:24:34.174Z,5.93
2018-06-12T00:27:05.270Z,6.87
2018-06-12T00:29:36.458Z,5.53
2018-06-12T00:32:07.703Z,7.77
2018-06-12T00:34:39.092Z,8.13
2018-06-12T00:37:10.471Z,7.93
2018-06-12T00:39:41.816Z,5.70
2018-06-12T00:42:12.835Z,7.60
2018-06-12T00:44:44.348Z,4.33
2018-06-12T00:47:15.594Z,7.13
2018-06-12T00:49:46.573Z,6.40
2018-06-12T00:52:17.840Z,4.33
2018-06-12T00:54:48.987Z,7.67
2018-06-12T00:57:20.178Z,10.37
2018-06-12T00:59:51.376Z,6.33
2018-06-12T01:02:22.703Z,7.60
2018-06-12T01:04:53.748Z,6.93
2018-06-12T01:07:25.423Z,5.77
2018-06-12T01:09:56.048Z,4.30
2018-06-12T01:12:27.284Z,5.20
2018-06-12T01:14:58.545Z,4.67
2018-06-12T01:17:29.933Z,8.57
2018-06-12T01:20:01.336Z,8.43
2018-06-12T01:22:32.178Z,8.93
2018-06-12T01:25:03.436Z,8.90
2018-06-12T01:27:34.662Z,8.60
2018-06-12T01:30:06.017Z,11.40
2018-06-12T01:32:37.067Z,9.23
2018-06-12T01:35:09.013Z,8.07
2018-06-12T01:37:40.184Z,8.77
2018-06-12T01:40:12.603Z,9.03
2018-06-12T01:42:43.958Z,5.70
2018-06-12T01:45:15.197Z,7.37
2018-06-12T01:47:46.808Z,9.17
2018-06-12T01:50:18.151Z,6.23
2018-06-12T01:52:49.483Z,7.50
2018-06-12T01:55:20.533Z,6.73
2018-06-12T01:57:51.692Z,9.03
2018-06-12T02:00:22.884Z,9.63
2018-06-12T02:02:53.867Z,10.40
2018-06-12T02:05:25.095Z,6.87
2018-06-12T02:07:56.465Z,11.30
2018-06-12T02:10:27.467Z,10.80
2018-06-12T02:12:58.453Z,6.77
2018-06-12T02:15:29.683Z,8.53
2018-06-12T02:18:01.038Z,7.70
2018-06-12T02:20:32.028Z,7.57
2018-06-12T02:23:03.121Z,6.50
2018-06-12T02:25:34.229Z,8.27
2018-06-12T02:28:06.193Z,9.77
2018-06-12T02:30:37.682Z,7.53
2018-06-12T02:33:09.044Z,7.40
2018-06-12T02:35:40.179Z,10.37
2018-06-12T02:38:12.038Z,8.57
2018-06-12T02:40:43.141Z,9.03
2018-06-12T02:43:15.113Z,9.63
2018-06-12T02:45:46.665Z,8.47
2018-06-12T02:48:17.701Z,7.37
2018-06-12T02:50:49.481Z,8.80
2018-06-12T02:53:20.451Z,11.90
2018-06-12T02:55:51.956Z,8.90
2018-06-12T02:58:23.903Z,8.73
2018-06-12T03:00:55.221Z,7.47
2018-06-12T03:03:26.214Z,10.73
2018-06-12T03:05:57.659Z,10.13
2018-06-12T03:08:28.807Z,9.63
2018-06-12T03:10:59.784Z,6.63
2018-06-12T03:13:30.799Z,7.57
2018-06-12T03:16:02.182Z,10.50
2018-06-12T03:18:33.381Z,10.13
2018-06-12T03:21:04.579Z,8.43
2018-06-12T03:23:35.930Z,7.33
2018-06-12T03:26:07.165Z,7.70
2018-06-12T03:28:38.512Z,8.97
2018-06-12T03:31:09.552Z,10.87
2018-06-12T03:33:40.700Z,8.20
2018-06-12T03:36:11.708Z,8.63
2018-06-12T03:38:42.696Z,11.03
2018-06-12T03:41:14.748Z,6.63
2018-06-12T03:43:46.368Z,8.80
2018-06-12T03:46:17.919Z,8.77
2018-06-12T03:48:49.220Z,7.77
2018-06-12T03:51:20.410Z,7.97
2018-06-12T03:53:51.420Z,8.73
2018-06-12T03:56:22.434Z,6.57
2018-06-12T03:58:53.779Z,7.13
2018-06-12T04:01:27.758Z,9.13
2018-06-12T04:03:59.210Z,9.47
2018-06-12T04:06:30.657Z,9.07
2018-06-12T04:09:01.909Z,6.87
2018-06-12T04:11:33.106Z,8.40
2018-06-12T04:14:04.340Z,9.23
2018-06-12T04:16:38.956Z,8.17
2018-06-12T04:19:11.235Z,6.47
2018-06-12T04:21:42.585Z,8.43
2018-06-12T04:24:13.573Z,8.50
2018-06-12T04:26:44.768Z,7.93
2018-06-12T04:29:15.990Z,7.90
2018-06-12T04:31:47.377Z,9.13
2018-06-12T04:34:18.778Z,5.70
2018-06-12T04:36:50.543Z,11.37
2018-06-12T04:39:21.724Z,7.03
2018-06-12T04:41:53.083Z,8.07
2018-06-12T04:44:24.321Z,7.83
2018-06-12T04:46:55.516Z,9.50
2018-06-12T04:49:26.873Z,7.43
2018-06-12T04:51:58.735Z,9.57
2018-06-12T04:54:30.021Z,9.20
2018-06-12T04:57:01.234Z,10.00
2018-06-12T04:59:32.271Z,10.67
2018-06-12T05:02:03.673Z,7.80
2018-06-12T05:04:34.979Z,7.47
2018-06-12T05:07:06.204Z,6.43
2018-06-12T05:09:37.413Z,9.83
2018-06-12T05:12:08.569Z,9.00
2018-06-12T05:14:39.588Z,8.33
2018-06-12T05:17:10.795Z,10.80
2018-06-12T05:19:42.033Z,9.73
2018-06-12T05:22:13.342Z,10.10
2018-06-12T05:24:44.343Z,13.27
2018-06-12T05:27:16.160Z,9.73
2018-06-12T05:29:47.479Z,7.30
2018-06-12T05:32:19.709Z,6.60
2018-06-12T05:34:51.064Z,10.57
2018-06-12T05:37:22.271Z,9.17
2018-06-12T05:39:53.491Z,11.80
2018-06-12T05:42:25.110Z,9.40
2018-06-12T05:44:56.443Z,12.23
2018-06-12T05:47:27.640Z,7.90
2018-06-12T05:49:58.995Z,8.07
2018-06-12T05:52:30.163Z,9.67
2018-06-12T05:55:01.404Z,9.77
2018-06-12T05:57:32.781Z,10.17
2018-06-12T06:00:04.187Z,8.63
2018-06-12T06:02:35.740Z,7.67
2018-06-12T06:05:07.767Z,11.33
2018-06-12T06:07:39.114Z,9.93
2018-06-12T06:10:10.606Z,7.60
2018-06-12T06:12:42.549Z,8.93
2018-06-12T06:15:13.882Z,9.30
2018-06-12T06:17:44.871Z,9.93
2018-06-12T06:20:16.069Z,13.70
2018-06-12T06:22:47.079Z,10.50
2018-06-12T06:25:18.458Z,10.57
2018-06-12T06:27:49.654Z,7.03
2018-06-12T06:30:21.009Z,6.63
2018-06-12T06:32:52.861Z,8.43
2018-06-12T06:35:24.204Z,6.27
2018-06-12T06:37:55.395Z,6.00
2018-06-12T06:40:26.376Z,6.27
2018-06-12T06:42:57.883Z,4.07
2018-06-12T06:45:29.620Z,3.63
2018-06-12T06:48:01.214Z,6.70
2018-06-12T06:50:32.516Z,4.73
2018-06-12T06:53:04.004Z,5.53
2018-06-12T06:55:35.269Z,7.90
2018-06-12T06:58:06.753Z,6.43
2018-06-12T07:00:39.055Z,5.43
2018-06-12T07:03:10.129Z,6.63
2018-06-12T07:05:41.212Z,3.87
2018-06-12T07:08:12.423Z,4.63
2018-06-12T07:10:43.625Z,7.53
2018-06-12T07:13:14.812Z,4.03
2018-06-12T07:15:46.194Z,3.37
2018-06-12T07:18:17.202Z,5.30
2018-06-12T07:21:24.125Z,3.90
2018-06-12T07:23:55.695Z,4.63
2018-06-12T07:26:26.406Z,3.97
2018-06-12T07:28:57.769Z,3.27
2018-06-12T07:31:29.114Z,4.13
2018-06-12T07:34:00.460Z,2.97
2018-06-12T07:36:31.731Z,4.23
2018-06-12T07:39:02.856Z,3.70
2018-06-12T07:41:34.101Z,4.10
2018-06-12T07:44:05.108Z,2.97
2018-06-12T07:46:36.495Z,4.30
2018-06-12T07:49:07.483Z,4.73
2018-06-12T07:51:38.643Z,4.33
2018-06-12T07:54:09.927Z,4.53
2018-06-12T07:56:41.279Z,5.07
2018-06-12T07:59:12.441Z,3.57
2018-06-12T08:01:43.618Z,10.47
2018-06-12T08:04:14.873Z,6.87
2018-06-12T08:06:46.034Z,5.23
2018-06-12T08:09:17.416Z,4.43
2018-06-12T08:11:48.760Z,3.80
2018-06-12T08:14:19.864Z,4.53
2018-06-12T08:16:52.045Z,5.27
2018-06-12T08:19:23.384Z,4.63
2018-06-12T08:21:55.183Z,5.17
2018-06-12T08:24:26.528Z,3.33
2018-06-12T08:26:58.101Z,3.53
2018-06-12T08:29:29.532Z,5.60
2018-06-12T08:32:00.476Z,6.20
2018-06-12T08:34:32.147Z,6.17
2018-06-12T08:37:03.531Z,7.30
2018-06-12T08:39:34.624Z,4.10
2018-06-12T08:42:05.671Z,5.77
2018-06-12T08:44:37.043Z,4.53
2018-06-12T08:47:08.572Z,4.97
2018-06-12T08:49:39.586Z,7.20
2018-06-12T08:52:10.779Z,6.30
2018-06-12T08:54:41.803Z,9.00
2018-06-12T08:57:12.968Z,7.57
2018-06-12T08:59:43.987Z,10.47
2018-06-12T09:02:15.197Z,14.93
2018-06-12T09:04:46.364Z,13.17
2018-06-12T09:07:17.422Z,16.87
2018-06-12T09:09:48.819Z,19.27
2018-06-12T09:12:20.138Z,19.97
2018-06-12T09:14:51.213Z,22.03
2018-06-12T09:17:22.516Z,21.13
2018-06-12T09:19:53.975Z,22.00
2018-06-12T09:22:25.315Z,21.60
2018-06-12T09:24:56.468Z,38.10
2018-06-12T09:27:27.704Z,22.70
2018-06-12T09:29:59.055Z,22.77
2018-06-12T09:32:30.263Z,29.03
2018-06-12T09:35:01.258Z,42.90
2018-06-12T09:37:32.431Z,26.37
2018-06-12T09:40:03.655Z,27.07
2018-06-12T09:42:35.019Z,28.10
2018-06-12T09:45:06.404Z,23.40
2018-06-12T09:47:37.642Z,33.63
2018-06-12T09:50:08.845Z,30.83
2018-06-12T09:52:40.204Z,30.30
2018-06-12T09:55:11.628Z,37.70
2018-06-12T09:57:42.790Z,39.17
2018-06-12T10:00:14.120Z,33.23
2018-06-12T10:02:45.164Z,26.77
2018-06-12T10:05:16.516Z,18.27
2018-06-12T10:07:47.555Z,14.80
2018-06-12T10:10:18.908Z,18.50
2018-06-12T10:12:50.112Z,19.77
2018-06-12T10:15:21.312Z,11.63
2018-06-12T10:17:52.850Z,11.20
2018-06-12T10:20:24.096Z,14.93
2018-06-12T10:22:55.268Z,15.97
2018-06-12T10:25:26.459Z,22.23
2018-06-12T10:27:57.439Z,23.33
2018-06-12T10:30:28.926Z,14.73
2018-06-12T10:33:00.040Z,14.17
2018-06-12T10:35:32.071Z,16.47
2018-06-12T10:38:03.396Z,16.97
2018-06-12T10:40:35.451Z,12.10
2018-06-12T10:43:06.873Z,12.97
2018-06-12T10:45:38.182Z,13.87
2018-06-12T10:48:09.724Z,14.77
2018-06-12T10:50:40.916Z,27.53
2018-06-12T10:53:12.122Z,15.50
2018-06-12T10:55:43.496Z,13.57
2018-06-12T10:58:14.531Z,10.90
2018-06-12T11:00:45.888Z,10.70
2018-06-12T11:03:16.912Z,8.43
2018-06-12T11:05:48.079Z,12.00
2018-06-12T11:08:19.270Z,9.50
2018-06-12T11:10:50.727Z,10.50
2018-06-12T11:13:22.112Z,6.60
2018-06-12T11:15:53.437Z,10.17
2018-06-12T11:18:24.667Z,7.30
2018-06-12T11:20:55.992Z,4.83
2018-06-12T11:23:27.422Z,7.40
2018-06-12T11:25:58.816Z,6.23
2018-06-12T11:28:30.168Z,5.80
2018-06-12T11:31:01.311Z,6.50
2018-06-12T11:33:32.372Z,6.87
2018-06-12T11:36:03.554Z,5.60
2018-06-12T11:38:34.561Z,7.30
2018-06-12T11:41:05.759Z,8.83
2018-06-12T11:43:41.061Z,10.27
2018-06-12T11:46:12.759Z,11.97
2018-06-12T11:48:44.085Z,11.53
2018-06-12T11:51:15.362Z,11.10
2018-06-12T11:53:45.923Z,8.50
2018-06-12T11:56:17.008Z,9.10
2018-06-12T11:58:48.048Z,10.33
2018-06-12T12:01:20.292Z,11.17
2018-06-12T12:03:51.585Z,6.90
2018-06-12T12:06:23.962Z,5.10
2018-06-12T12:08:55.615Z,9.47
2018-06-12T12:11:26.739Z,9.33
2018-06-12T12:13:58.400Z,10.13
2018-06-12T12:16:29.696Z,8.43
2018-06-12T12:19:00.923Z,7.97
2018-06-12T12:21:32.256Z,7.20
2018-06-12T12:24:03.305Z,8.60
2018-06-12T12:26:34.494Z,5.17
2018-06-12T12:29:06.340Z,4.33
2018-06-12T12:31:37.636Z,5.10
2018-06-12T12:34:09.014Z,5.27
2018-06-12T12:36:40.200Z,5.47
2018-06-12T12:39:11.404Z,6.57
2018-06-12T12:41:42.600Z,6.10
2018-06-12T12:44:13.787Z,6.73
2018-06-12T12:46:45.247Z,4.73
2018-06-12T12:49:16.599Z,4.60
2018-06-12T12:51:47.769Z,7.00
2018-06-12T12:54:19.152Z,5.53
2018-06-12T12:56:50.525Z,6.40
2018-06-12T12:59:21.725Z,8.90
2018-06-12T13:01:52.928Z,9.70
2018-06-12T13:04:24.126Z,12.33
2018-06-12T13:06:55.782Z,10.87
2018-06-12T13:09:27.124Z,9.43
2018-06-12T13:11:58.304Z,5.20
2018-06-12T13:14:29.675Z,7.47
2018-06-12T13:17:01.025Z,9.07
2018-06-12T13:19:32.305Z,5.97
2018-06-12T13:22:03.719Z,4.70
2018-06-12T13:24:35.004Z,4.40
2018-06-12T13:27:06.012Z,3.77
2018-06-12T13:29:37.006Z,2.80
2018-06-12T13:32:08.039Z,4.27
2018-06-12T13:34:39.392Z,4.77
2018-06-12T13:37:10.432Z,3.80
2018-06-12T13:39:41.783Z,3.37
2018-06-12T13:42:13.179Z,4.63
2018-06-12T13:44:44.625Z,3.60
2018-06-12T13:47:15.935Z,3.90
2018-06-12T13:49:47.165Z,5.37
2018-06-12T13:52:18.784Z,5.37
2018-06-12T13:54:50.112Z,6.73
2018-06-12T13:57:21.487Z,3.67
2018-06-12T13:59:53.130Z,4.43
2018-06-12T14:02:24.267Z,4.20
2018-06-12T14:04:55.413Z,5.77
2018-06-12T14:07:26.712Z,4.00
2018-06-12T14:09:58.012Z,6.93
2018-06-12T14:12:29.223Z,5.03
2018-06-12T14:15:01.075Z,4.40
2018-06-12T14:17:32.371Z,4.53
2018-06-12T14:20:03.684Z,4.53
2018-06-12T14:22:34.971Z,6.57
2018-06-12T14:25:06.281Z,3.27
2018-06-12T14:27:37.038Z,4.50
2018-06-12T14:30:08.202Z,5.70
2018-06-12T14:32:39.546Z,3.27
2018-06-12T14:35:10.957Z,3.40
2018-06-12T14:37:42.617Z,3.67
2018-06-12T14:40:13.958Z,4.77
2018-06-12T14:42:45.273Z,3.67
2018-06-12T14:45:16.668Z,2.87
2018-06-12T14:47:47.690Z,5.07
2018-06-12T14:50:18.883Z,3.77
2018-06-12T14:52:50.542Z,3.87
2018-06-12T14:55:21.808Z,4.23
2018-06-12T14:57:53.036Z,4.87
2018-06-12T15:00:25.441Z,3.77
2018-06-12T15:02:56.780Z,5.93
2018-06-12T15:05:28.322Z,3.47
2018-06-12T15:07:59.727Z,3.03
2018-06-12T15:10:30.984Z,3.00
2018-06-12T15:13:02.369Z,3.80
2018-06-12T15:15:34.019Z,3.03
2018-06-12T15:18:05.435Z,5.43
2018-06-12T15:20:36.996Z,3.80
2018-06-12T15:23:08.320Z,2.07
2018-06-12T15:25:40.149Z,2.70
2018-06-12T15:28:11.482Z,2.33
2018-06-12T15:30:44.027Z,1.70
2018-06-12T15:33:16.098Z,1.83
2018-06-12T15:35:47.391Z,2.13
2018-06-12T15:38:18.584Z,1.40
2018-06-12T15:40:50.559Z,1.57
2018-06-12T15:43:21.732Z,3.10
2018-06-12T15:45:52.771Z,2.43
2018-06-12T15:48:23.982Z,2.20
2018-06-12T15:50:55.331Z,2.40
2018-06-12T15:53:26.512Z,2.10
2018-06-12T15:55:57.907Z,2.20
2018-06-12T15:58:28.910Z,4.90
2018-06-12T16:01:00.132Z,1.60
2018-06-12T16:03:31.500Z,3.10
2018-06-12T16:06:02.655Z,2.13
2018-06-12T16:08:33.684Z,2.87
2018-06-12T16:11:06.030Z,3.73
2018-06-12T16:13:37.060Z,3.97
2018-06-12T16:16:08.451Z,1.90
2018-06-12T16:18:39.644Z,4.00
2018-06-12T16:21:11.015Z,2.67
2018-06-12T16:23:42.398Z,3.53
2018-06-12T16:26:13.640Z,3.10
2018-06-12T16:28:44.804Z,3.63
2018-06-12T16:31:16.170Z,2.87
2018-06-12T16:33:47.557Z,2.73
2018-06-12T16:36:19.012Z,5.33
2018-06-12T16:38:50.300Z,2.77
2018-06-12T16:41:21.843Z,2.60
2018-06-12T16:43:53.088Z,4.37
2018-06-12T16:46:24.744Z,2.97
2018-06-12T16:48:56.164Z,4.27
2018-06-12T16:51:27.505Z,4.33
2018-06-12T16:53:58.659Z,2.57
2018-06-12T16:56:29.982Z,2.80
2018-06-12T16:59:01.205Z,3.03
2018-06-12T17:01:32.252Z,3.60
2018-06-12T17:04:03.640Z,3.00
2018-06-12T17:06:35.033Z,3.87
2018-06-12T17:09:08.532Z,4.00
2018-06-12T17:11:39.877Z,4.17
2018-06-12T17:14:10.642Z,5.37
2018-06-12T17:16:41.929Z,4.27
2018-06-12T17:19:13.219Z,3.47
2018-06-12T17:21:44.608Z,6.80
2018-06-12T17:24:16.183Z,4.37
2018-06-12T17:26:47.492Z,2.80
2018-06-12T17:29:19.184Z,3.87
2018-06-12T17:31:49.915Z,5.70
2018-06-12T17:34:20.555Z,5.97
2018-06-12T17:36:51.743Z,3.17
2018-06-12T17:39:23.310Z,2.90
2018-06-12T17:41:54.706Z,4.30
2018-06-12T17:44:25.999Z,5.40
2018-06-12T17:46:57.023Z,3.10
2018-06-12T17:49:28.380Z,2.40
2018-06-12T17:51:59.468Z,2.30
2018-06-12T17:54:30.763Z,2.47
2018-06-12T17:57:01.977Z,3.80
2018-06-12T17:59:32.950Z,1.60
2018-06-12T18:02:04.279Z,3.40
2018-06-12T18:04:35.517Z,3.43
2018-06-12T18:07:06.850Z,2.87
2018-06-12T18:09:37.956Z,3.13
2018-06-12T18:12:09.152Z,3.93
2018-06-12T18:14:41.112Z,4.20
2018-06-12T18:17:12.467Z,3.53
2018-06-12T18:19:48.016Z,2.57
2018-06-12T18:22:19.057Z,4.27
2018-06-12T18:24:50.476Z,5.93
2018-06-12T18:27:21.908Z,4.30
2018-06-12T18:29:53.151Z,5.07
2018-06-12T18:32:24.184Z,3.37
2018-06-12T18:34:55.347Z,2.60
2018-06-12T18:37:26.588Z,3.93
2018-06-12T18:39:57.715Z,3.80
2018-06-12T18:42:28.894Z,4.37
2018-06-12T18:45:00.381Z,3.40
2018-06-12T18:47:31.731Z,3.23
2018-06-12T18:50:03.124Z,4.03
2018-06-12T18:52:34.736Z,3.60
2018-06-12T18:55:06.151Z,5.20
2018-06-12T18:57:37.623Z,2.77
2018-06-12T19:00:09.107Z,3.97
2018-06-12T19:02:40.233Z,5.97
2018-06-12T19:05:11.467Z,3.50
2018-06-12T19:07:42.788Z,3.43
2018-06-12T19:10:14.011Z,5.90
2018-06-12T19:12:46.283Z,3.07
2018-06-12T19:15:17.583Z,4.77
2018-06-12T19:17:48.748Z,3.10
2018-06-12T19:20:19.949Z,4.57
2018-06-12T19:22:51.140Z,3.70
2018-06-12T19:25:22.585Z,2.97
2018-06-12T19:27:54.020Z,5.97
2018-06-12T19:30:25.383Z,5.57
2018-06-12T19:32:56.676Z,5.70
2018-06-12T19:35:27.879Z,5.13
2018-06-12T19:37:58.888Z,6.07
2018-06-12T19:40:30.275Z,5.80
2018-06-12T19:43:01.322Z,4.33
2018-06-12T19:45:32.687Z,4.23
2018-06-12T19:48:04.053Z,6.33
2018-06-12T19:50:35.244Z,4.43
2018-06-12T19:53:06.677Z,5.43
2018-06-12T19:55:38.065Z,5.80
2018-06-12T19:58:09.512Z,3.57
2018-06-12T20:00:41.106Z,4.37
2018-06-12T20:03:12.371Z,5.47
2018-06-12T20:05:43.804Z,3.03
2018-06-12T20:08:15.528Z,4.10
2018-06-12T20:10:46.704Z,3.17
2018-06-12T20:13:18.394Z,4.70
2018-06-12T20:15:50.877Z,3.50
2018-06-12T20:18:21.880Z,5.37
2018-06-12T20:20:53.257Z,4.53
2018-06-12T20:23:24.274Z,3.53
2018-06-12T20:25:55.532Z,3.77
2018-06-12T20:28:26.879Z,4.73
2018-06-12T20:30:58.031Z,6.73
2018-06-12T20:33:29.227Z,4.53
2018-06-12T20:36:00.698Z,5.23
2018-06-12T20:38:32.007Z,5.27
2018-06-12T20:41:03.412Z,5.70
2018-06-12T20:43:34.577Z,3.80
2018-06-12T20:46:06.241Z,4.80
2018-06-12T20:48:37.839Z,5.13
2018-06-12T20:51:09.132Z,5.03
2018-06-12T20:53:40.146Z,4.27
2018-06-12T20:56:11.339Z,3.00
2018-06-12T20:58:42.767Z,5.53
2018-06-12T21:01:14.109Z,7.17
2018-06-12T21:03:45.471Z,3.93
2018-06-12T21:06:16.776Z,4.40
2018-06-12T21:08:54.603Z,4.37
2018-06-12T21:11:25.759Z,4.80
2018-06-12T21:13:56.940Z,4.23
2018-06-12T21:16:27.935Z,4.87
2018-06-12T21:18:59.383Z,6.17
2018-06-12T21:21:31.278Z,4.23
2018-06-12T21:24:02.304Z,3.93
2018-06-12T21:26:33.703Z,4.00
2018-06-12T21:29:05.235Z,4.20
2018-06-12T21:31:36.923Z,4.00
2018-06-12T21:34:08.220Z,6.07
2018-06-12T21:36:40.060Z,6.00
2018-06-12T21:39:11.471Z,4.73
2018-06-12T21:41:42.882Z,9.80
2018-06-12T21:44:14.182Z,7.47
2018-06-12T21:46:46.385Z,8.33
2018-06-12T21:49:17.558Z,8.13
2018-06-12T21:51:48.743Z,5.67
2018-06-12T21:54:19.966Z,5.93
2018-06-12T21:56:51.129Z,8.57
2018-06-12T21:59:22.359Z,7.13
2018-06-12T22:01:53.513Z,8.30
2018-06-12T22:04:24.702Z,8.07
2018-06-12T22:06:56.104Z,6.87
2018-06-12T22:09:27.771Z,8.63
2018-06-12T22:11:58.719Z,9.77
2018-06-12T22:14:31.208Z,9.03
2018-06-12T22:17:02.267Z,7.80
2018-06-12T22:19:33.426Z,11.13
2018-06-12T22:22:04.624Z,8.83
2018-06-12T22:24:35.879Z,8.20
2018-06-12T22:27:07.036Z,10.30
2018-06-12T22:29:38.666Z,8.60
2018-06-12T22:32:10.038Z,9.27
2018-06-12T22:34:41.158Z,9.00
2018-06-12T22:37:12.347Z,10.50
2018-06-12T22:39:43.724Z,9.90
2018-06-12T22:42:14.800Z,11.23
2018-06-12T22:44:46.112Z,10.37
2018-06-12T22:47:17.548Z,8.77
2018-06-12T22:49:49.774Z,9.80
2018-06-12T22:52:20.899Z,9.70
2018-06-12T22:54:52.065Z,11.53
2018-06-12T22:57:23.717Z,8.60
2018-06-12T22:59:55.023Z,9.27
2018-06-12T23:02:28.463Z,9.97
2018-06-12T23:04:59.614Z,13.67
2018-06-12T23:07:30.791Z,12.50
2018-06-12T23:10:02.252Z,9.30
2018-06-12T23:12:34.313Z,12.27
2018-06-12T23:15:05.544Z,12.67
2018-06-12T23:17:36.988Z,11.00
2018-06-12T23:20:24.229Z,10.50
2018-06-12T23:22:55.656Z,11.80
2018-06-12T23:25:27.013Z,13.87
2018-06-12T23:27:58.193Z,12.30
2018-06-12T23:30:29.596Z,13.73
2018-06-12T23:33:00.787Z,11.37
2018-06-12T23:35:32.168Z,14.77
2018-06-12T23:38:03.369Z,13.03
2018-06-12T23:40:34.581Z,12.87
2018-06-12T23:43:05.818Z,13.53
2018-06-12T23:45:36.963Z,16.90
2018-06-12T23:48:08.123Z,13.60
2018-06-12T23:50:39.353Z,14.87
2018-06-12T23:53:10.693Z,14.70
2018-06-12T23:55:41.955Z,10.57
2018-06-12T23:58:13.287Z,12.03
